createdAt,value
2023-05-22T00:01:06.588Z,21.48
2023-05-22T00:03:33.736Z,21.90
2023-05-22T00:06:00.547Z,21.65
2023-05-22T00:08:29.841Z,21.58
2023-05-22T00:10:56.697Z,21.64
2023-05-22T00:13:23.368Z,21.80
2023-05-22T00:15:50.089Z,22.03
2023-05-22T00:18:16.825Z,22.39
2023-05-22T00:20:46.369Z,22.86
2023-05-22T00:23:15.408Z,22.08
2023-05-22T00:25:42.465Z,21.93
2023-05-22T00:28:09.081Z,22.39
2023-05-22T00:30:36.879Z,23.59
2023-05-22T00:33:03.963Z,22.61
2023-05-22T00:35:30.986Z,22.66
2023-05-22T00:37:57.673Z,23.13
2023-05-22T00:40:24.312Z,23.94
2023-05-22T00:42:50.886Z,23.85
2023-05-22T00:45:17.663Z,24.02
2023-05-22T00:47:44.370Z,24.26
2023-05-22T00:50:11.987Z,24.97
2023-05-22T00:52:42.604Z,25.28
2023-05-22T00:55:10.556Z,24.80
2023-05-22T00:57:38.618Z,25.95
2023-05-22T01:00:06.507Z,25.76
2023-05-22T01:02:34.443Z,25.82
2023-05-22T01:05:04.062Z,25.86
2023-05-22T01:07:30.825Z,25.51
2023-05-22T01:09:57.526Z,25.90
2023-05-22T01:12:38.111Z,25.20
2023-05-22T01:15:32.079Z,26.01
2023-05-22T01:18:12.435Z,25.73
2023-05-22T01:20:43.926Z,26.70
2023-05-22T01:23:29.225Z,25.94
2023-05-22T01:26:23.738Z,26.25
2023-05-22T01:28:56.423Z,26.52
2023-05-22T01:31:27.588Z,26.37
2023-05-22T01:33:57.336Z,26.54
2023-05-22T01:36:28.963Z,26.70
2023-05-22T01:38:56.436Z,26.47
2023-05-22T01:41:23.320Z,26.97
2023-05-22T01:43:49.938Z,26.30
2023-05-22T01:46:16.657Z,27.31
2023-05-22T01:48:43.254Z,26.69
2023-05-22T01:51:44.703Z,26.26
2023-05-22T01:54:20.137Z,26.03
2023-05-22T01:56:55.669Z,26.42
2023-05-22T01:59:34.901Z,26.07
2023-05-22T02:02:06.511Z,25.93
2023-05-22T02:04:39.534Z,26.10
2023-05-22T02:07:07.362Z,24.88
2023-05-22T02:09:35.405Z,24.52
2023-05-22T02:12:03.064Z,26.10
2023-05-22T02:14:30.205Z,26.04
2023-05-22T02:16:58.084Z,26.42
2023-05-22T02:19:24.733Z,25.18
2023-05-22T02:21:51.361Z,25.80
2023-05-22T02:24:17.923Z,25.97
2023-05-22T02:26:44.638Z,26.83
2023-05-22T02:29:12.851Z,26.35
2023-05-22T02:31:39.501Z,26.00
2023-05-22T02:34:06.599Z,26.86
2023-05-22T02:36:33.285Z,26.05
2023-05-22T02:39:00.316Z,25.60
2023-05-22T02:41:26.938Z,25.21
2023-05-22T02:43:53.558Z,26.05
2023-05-22T02:46:20.772Z,24.36
2023-05-22T02:48:47.403Z,23.93
2023-05-22T02:51:13.964Z,24.27
2023-05-22T02:53:41.521Z,24.37
2023-05-22T02:56:08.883Z,24.33
2023-05-22T02:58:35.918Z,25.33
2023-05-22T03:01:03.484Z,26.82
2023-05-22T03:03:31.323Z,25.11
2023-05-22T03:05:58.556Z,25.14
2023-05-22T03:08:28.099Z,25.31
2023-05-22T03:10:56.599Z,24.61
2023-05-22T03:13:23.317Z,24.45
2023-05-22T03:15:49.946Z,23.63
2023-05-22T03:18:16.943Z,25.61
2023-05-22T03:20:43.946Z,24.16
2023-05-22T03:23:13.292Z,28.10
2023-05-22T03:25:39.867Z,28.30
2023-05-22T03:28:06.605Z,27.11
2023-05-22T03:30:33.684Z,25.84
2023-05-22T03:33:00.474Z,27.45
2023-05-22T03:35:27.109Z,26.86
2023-05-22T03:37:53.686Z,27.37
2023-05-22T03:40:20.280Z,26.41
2023-05-22T03:42:46.936Z,25.99
2023-05-22T03:45:13.602Z,25.98
2023-05-22T03:47:40.278Z,25.81
2023-05-22T03:50:07.281Z,25.64
2023-05-22T03:52:33.999Z,26.05
2023-05-22T03:55:00.609Z,26.61
2023-05-22T03:57:27.283Z,26.41
2023-05-22T03:59:53.884Z,26.87
2023-05-22T04:02:21.126Z,27.50
2023-05-22T04:04:47.846Z,26.01
2023-05-22T04:07:14.654Z,25.47
2023-05-22T04:09:41.442Z,26.24
2023-05-22T04:12:08.672Z,26.04
2023-05-22T04:14:35.292Z,26.51
2023-05-22T04:17:01.900Z,26.39
2023-05-22T04:19:30.057Z,26.79
2023-05-22T04:21:58.346Z,26.17
2023-05-22T04:24:25.458Z,25.67
2023-05-22T04:26:52.153Z,25.57
2023-05-22T04:29:21.991Z,25.05
2023-05-22T04:31:48.634Z,24.96
2023-05-22T04:34:16.077Z,24.82
2023-05-22T04:36:45.048Z,24.91
2023-05-22T04:39:13.793Z,25.37
2023-05-22T04:41:40.835Z,26.10
2023-05-22T04:44:07.875Z,27.09
2023-05-22T04:46:35.786Z,26.77
2023-05-22T04:49:03.236Z,27.83
2023-05-22T04:51:31.257Z,27.75
2023-05-22T04:53:58.329Z,28.17
2023-05-22T04:56:35.408Z,28.53
2023-05-22T04:59:05.383Z,28.76
2023-05-22T05:01:33.493Z,29.05
2023-05-22T05:04:00.717Z,29.11
2023-05-22T05:06:27.496Z,29.01
2023-05-22T05:08:54.904Z,29.56
2023-05-22T05:11:21.626Z,28.33
2023-05-22T05:13:48.289Z,28.81
2023-05-22T05:16:14.921Z,29.35
2023-05-22T05:18:41.586Z,29.21
2023-05-22T05:21:08.672Z,28.36
2023-05-22T05:23:35.436Z,28.71
2023-05-22T05:26:02.082Z,28.78
2023-05-22T05:28:28.681Z,28.64
2023-05-22T05:30:55.432Z,28.26
2023-05-22T05:33:22.036Z,28.35
2023-05-22T05:35:50.324Z,29.13
2023-05-22T05:38:17.343Z,28.50
2023-05-22T05:40:45.222Z,28.50
2023-05-22T05:43:14.890Z,28.75
2023-05-22T05:45:42.231Z,29.04
2023-05-22T05:48:09.032Z,28.38
2023-05-22T05:50:35.817Z,28.02
2023-05-22T05:53:02.441Z,28.07
2023-05-22T05:55:29.090Z,26.75
2023-05-22T05:57:55.822Z,27.61
2023-05-22T06:00:22.585Z,27.94
2023-05-22T06:02:50.750Z,27.85
2023-05-22T06:05:19.278Z,26.74
2023-05-22T06:07:46.041Z,27.05
2023-05-22T06:10:13.046Z,27.15
2023-05-22T06:12:39.833Z,27.70
2023-05-22T06:15:13.073Z,27.39
2023-05-22T06:17:39.707Z,26.87
2023-05-22T06:20:07.198Z,27.16
2023-05-22T06:22:33.775Z,26.38
2023-05-22T06:25:00.427Z,26.37
2023-05-22T06:27:29.844Z,26.61
2023-05-22T06:29:56.764Z,27.07
2023-05-22T06:32:23.428Z,26.53
2023-05-22T06:34:50.168Z,26.76
2023-05-22T06:37:16.871Z,26.47
2023-05-22T06:39:43.516Z,26.46
2023-05-22T06:42:10.134Z,27.20
2023-05-22T06:44:36.827Z,26.82
2023-05-22T06:47:03.480Z,27.12
2023-05-22T06:49:30.069Z,26.73
2023-05-22T06:51:57.115Z,26.05
2023-05-22T06:54:23.820Z,26.73
2023-05-22T06:56:50.541Z,26.65
2023-05-22T06:59:17.312Z,25.77
2023-05-22T07:01:44.012Z,25.47
2023-05-22T07:04:13.341Z,25.69
2023-05-22T07:06:41.901Z,25.63
2023-05-22T07:09:09.003Z,26.03
2023-05-22T07:11:35.947Z,25.62
2023-05-22T07:14:02.780Z,26.37
2023-05-22T07:16:31.161Z,25.34
2023-05-22T07:18:57.921Z,25.45
2023-05-22T07:21:24.546Z,25.81
2023-05-22T07:23:52.439Z,25.72
2023-05-22T07:26:19.320Z,24.32
2023-05-22T07:28:45.982Z,24.38
2023-05-22T07:31:12.610Z,23.53
2023-05-22T07:33:39.204Z,22.78
2023-05-22T07:36:06.325Z,22.92
2023-05-22T07:38:33.049Z,23.43
2023-05-22T07:40:59.684Z,23.62
2023-05-22T07:43:26.298Z,22.70
2023-05-22T07:45:54.146Z,23.19
2023-05-22T07:48:20.943Z,23.84
2023-05-22T07:50:47.853Z,23.72
2023-05-22T07:53:14.938Z,24.38
2023-05-22T07:55:42.250Z,24.49
2023-05-22T07:58:10.722Z,24.49
2023-05-22T08:00:37.363Z,25.18
2023-05-22T08:03:04.181Z,25.01
2023-05-22T08:05:31.039Z,25.31
2023-05-22T08:07:57.636Z,24.92
2023-05-22T08:10:24.317Z,23.90
2023-05-22T08:12:50.974Z,22.91
2023-05-22T08:15:17.823Z,21.70
2023-05-22T08:17:44.473Z,24.11
2023-05-22T08:20:11.739Z,24.00
2023-05-22T08:22:41.883Z,24.24
2023-05-22T08:25:09.255Z,23.25
2023-05-22T08:27:36.097Z,22.12
2023-05-22T08:30:04.584Z,22.24
2023-05-22T08:32:31.568Z,22.43
2023-05-22T08:34:59.257Z,22.99
2023-05-22T08:37:26.140Z,20.54
2023-05-22T08:39:52.790Z,20.66
2023-05-22T08:42:19.371Z,20.95
2023-05-22T08:44:47.482Z,21.53
2023-05-22T08:47:15.092Z,20.36
2023-05-22T08:49:42.278Z,20.19
2023-05-22T08:52:22.366Z,20.07
2023-05-22T08:54:55.656Z,20.09
2023-05-22T08:57:23.687Z,20.47
2023-05-22T08:59:50.603Z,20.21
2023-05-22T09:02:17.680Z,19.31
2023-05-22T09:04:44.285Z,19.60
2023-05-22T09:07:10.861Z,20.25
2023-05-22T09:09:38.317Z,21.03
2023-05-22T09:12:09.620Z,22.53
2023-05-22T09:14:40.492Z,23.23
2023-05-22T09:17:09.333Z,22.91
2023-05-22T09:19:36.209Z,23.89
2023-05-22T09:22:06.370Z,21.78
2023-05-22T09:24:40.799Z,21.16
2023-05-22T09:27:07.636Z,23.17
2023-05-22T09:29:55.016Z,23.44
2023-05-22T09:32:21.916Z,24.06
2023-05-22T09:34:49.015Z,25.85
2023-05-22T09:37:16.881Z,21.82
2023-05-22T09:39:45.480Z,21.52
2023-05-22T09:42:15.014Z,23.60
2023-05-22T09:44:44.884Z,27.12
2023-05-22T09:47:12.321Z,27.30
2023-05-22T09:49:43.100Z,26.60
2023-05-22T09:52:12.314Z,26.31
2023-05-22T09:54:50.951Z,24.08
2023-05-22T09:57:20.695Z,21.34
2023-05-22T09:59:54.202Z,23.57
2023-05-22T10:02:25.958Z,22.39
2023-05-22T10:04:53.541Z,21.30
2023-05-22T10:07:25.214Z,22.57
2023-05-22T10:09:59.810Z,23.95
2023-05-22T10:12:28.880Z,22.60
2023-05-22T10:14:55.636Z,23.00
2023-05-22T10:17:24.131Z,22.17
2023-05-22T10:19:53.842Z,21.98
2023-05-22T10:22:22.533Z,22.00
2023-05-22T10:24:50.892Z,21.80
2023-05-22T10:27:17.624Z,20.69
2023-05-22T10:30:01.377Z,21.01
2023-05-22T10:32:39.942Z,20.09
2023-05-22T10:35:06.769Z,20.53
2023-05-22T10:37:57.701Z,19.99
2023-05-22T10:40:29.403Z,19.27
2023-05-22T10:43:01.146Z,17.04
2023-05-22T10:45:29.008Z,16.89
2023-05-22T10:48:12.542Z,17.40
2023-05-22T10:50:40.196Z,18.11
2023-05-22T10:53:22.450Z,18.01
2023-05-22T10:55:52.474Z,17.61
2023-05-22T10:58:27.265Z,18.00
2023-05-22T11:01:12.632Z,18.50
2023-05-22T11:04:01.727Z,18.21
2023-05-22T11:06:40.962Z,18.85
2023-05-22T11:09:32.342Z,19.06
2023-05-22T11:12:19.145Z,18.91
2023-05-22T11:15:13.559Z,18.60
2023-05-22T11:17:41.344Z,18.51
2023-05-22T11:20:18.604Z,17.63
2023-05-22T11:23:00.244Z,17.37
2023-05-22T11:25:28.211Z,18.40
2023-05-22T11:27:55.559Z,18.67
2023-05-22T11:30:26.765Z,18.75
2023-05-22T11:32:53.413Z,17.66
2023-05-22T11:35:24.466Z,17.01
2023-05-22T11:37:53.041Z,17.19
2023-05-22T11:40:21.518Z,16.18
2023-05-22T11:42:48.270Z,16.20
2023-05-22T11:45:15.128Z,16.93
2023-05-22T11:47:42.420Z,15.98
2023-05-22T11:50:11.136Z,15.92
2023-05-22T11:52:39.266Z,15.72
2023-05-22T11:55:06.700Z,15.57
2023-05-22T11:57:34.766Z,15.00
2023-05-22T12:00:02.236Z,14.70
2023-05-22T12:02:28.943Z,13.77
2023-05-22T12:04:56.737Z,13.18
2023-05-22T12:07:24.032Z,13.12
2023-05-22T12:09:50.698Z,13.70
2023-05-22T12:12:17.570Z,13.33
2023-05-22T12:14:45.891Z,12.82
2023-05-22T12:17:13.419Z,13.53
2023-05-22T12:19:44.171Z,13.32
2023-05-22T12:22:11.747Z,14.05
2023-05-22T12:24:42.960Z,16.40
2023-05-22T12:27:10.461Z,16.30
2023-05-22T12:29:39.308Z,16.67
2023-05-22T12:32:09.207Z,14.58
2023-05-22T12:34:42.858Z,12.01
2023-05-22T12:37:25.920Z,12.80
2023-05-22T12:39:57.581Z,13.59
2023-05-22T12:42:25.365Z,13.45
2023-05-22T12:44:56.760Z,13.99
2023-05-22T12:47:24.540Z,14.45
2023-05-22T12:49:51.730Z,13.93
2023-05-22T12:52:18.482Z,14.13
2023-05-22T12:54:45.422Z,13.48
2023-05-22T12:57:12.068Z,13.97
2023-05-22T12:59:38.661Z,13.70
2023-05-22T13:02:05.661Z,15.11
2023-05-22T13:04:32.413Z,15.31
2023-05-22T13:06:59.127Z,16.27
2023-05-22T13:09:26.044Z,17.10
2023-05-22T13:11:52.766Z,17.03
2023-05-22T13:14:19.351Z,16.77
2023-05-22T13:16:45.955Z,17.61
2023-05-22T13:19:12.708Z,17.59
2023-05-22T13:21:39.333Z,17.72
2023-05-22T13:24:06.132Z,17.13
2023-05-22T13:26:32.802Z,16.57
2023-05-22T13:28:59.419Z,15.81
2023-05-22T13:31:26.245Z,15.76
2023-05-22T13:33:52.995Z,15.69
2023-05-22T13:36:19.865Z,14.34
2023-05-22T13:38:46.566Z,14.04
2023-05-22T13:41:15.374Z,14.14
2023-05-22T13:43:42.020Z,14.59
2023-05-22T13:46:08.953Z,13.73
2023-05-22T13:48:35.611Z,14.48
2023-05-22T13:51:02.306Z,14.16
2023-05-22T13:53:28.916Z,13.61
2023-05-22T13:55:55.622Z,13.45
2023-05-22T13:58:22.280Z,12.81
2023-05-22T14:00:48.923Z,13.26
2023-05-22T14:03:17.580Z,12.69
2023-05-22T14:05:45.015Z,12.98
2023-05-22T14:08:11.660Z,12.50
2023-05-22T14:10:38.740Z,11.88
2023-05-22T14:13:05.819Z,11.98
2023-05-22T14:15:32.512Z,11.94
2023-05-22T14:17:59.194Z,11.40
2023-05-22T14:20:25.847Z,11.18
2023-05-22T14:22:57.817Z,11.65
2023-05-22T14:25:27.820Z,11.21
2023-05-22T14:27:54.418Z,11.05
2023-05-22T14:30:21.032Z,11.00
2023-05-22T14:32:48.446Z,11.35
2023-05-22T14:35:16.570Z,11.84
2023-05-22T14:37:44.217Z,11.32
2023-05-22T14:40:10.873Z,10.88
2023-05-22T14:42:37.521Z,10.82
2023-05-22T14:45:04.714Z,11.21
2023-05-22T14:47:31.873Z,11.35
2023-05-22T14:50:06.752Z,11.12
2023-05-22T14:52:44.546Z,11.08
2023-05-22T14:55:11.145Z,10.78
2023-05-22T14:57:37.747Z,10.29
2023-05-22T15:00:06.436Z,10.19
2023-05-22T15:02:33.059Z,10.15
2023-05-22T15:04:59.669Z,10.60
2023-05-22T15:07:39.670Z,10.37
2023-05-22T15:10:12.983Z,10.43
2023-05-22T15:12:39.662Z,10.69
2023-05-22T15:15:06.790Z,9.68
2023-05-22T15:17:33.391Z,8.83
2023-05-22T15:20:00.061Z,9.13
2023-05-22T15:22:26.647Z,8.05
2023-05-22T15:25:05.498Z,8.56
2023-05-22T15:27:34.602Z,9.01
2023-05-22T15:30:02.287Z,8.17
2023-05-22T15:32:30.627Z,7.84
2023-05-22T15:34:57.605Z,7.53
2023-05-22T15:37:24.227Z,7.33
2023-05-22T15:39:50.879Z,7.37
2023-05-22T15:42:18.096Z,6.78
2023-05-22T15:44:44.766Z,7.00
2023-05-22T15:47:11.367Z,6.50
2023-05-22T15:49:37.966Z,6.69
2023-05-22T15:52:04.629Z,6.18
2023-05-22T15:54:31.204Z,6.01
2023-05-22T15:56:57.769Z,6.01
2023-05-22T15:59:24.336Z,5.54
2023-05-22T16:01:51.073Z,5.36
2023-05-22T16:04:17.688Z,5.11
2023-05-22T16:06:44.338Z,5.25
2023-05-22T16:09:11.003Z,5.50
2023-05-22T16:11:37.856Z,5.09
2023-05-22T16:14:04.895Z,5.42
2023-05-22T16:16:31.622Z,5.17
2023-05-22T16:18:58.313Z,5.45
2023-05-22T16:21:24.951Z,5.52
2023-05-22T16:23:51.652Z,5.83
2023-05-22T16:26:18.307Z,5.93
2023-05-22T16:28:44.859Z,5.94
2023-05-22T16:31:12.836Z,5.81
2023-05-22T16:33:39.492Z,5.75
2023-05-22T16:36:06.384Z,6.07
2023-05-22T16:38:32.966Z,6.03
2023-05-22T16:40:59.825Z,6.01
2023-05-22T16:43:26.413Z,6.03
2023-05-22T16:45:52.959Z,6.28
2023-05-22T16:48:19.678Z,6.17
2023-05-22T16:50:46.717Z,6.23
2023-05-22T16:53:13.749Z,5.95
2023-05-22T16:55:40.596Z,5.72
2023-05-22T16:58:09.019Z,5.94
2023-05-22T17:00:36.616Z,6.16
2023-05-22T17:03:03.790Z,5.73
2023-05-22T17:05:30.626Z,5.72
2023-05-22T17:07:57.195Z,5.71
2023-05-22T17:10:23.798Z,5.90
2023-05-22T17:12:51.099Z,5.64
2023-05-22T17:15:17.709Z,6.29
2023-05-22T17:17:44.387Z,6.70
2023-05-22T17:20:11.459Z,6.77
2023-05-22T17:22:38.620Z,6.83
2023-05-22T17:25:06.206Z,6.72
2023-05-22T17:27:35.957Z,7.19
2023-05-22T17:30:04.765Z,7.07
2023-05-22T17:32:31.475Z,7.30
2023-05-22T17:34:58.170Z,7.54
2023-05-22T17:37:24.720Z,7.46
2023-05-22T17:39:51.673Z,7.99
2023-05-22T17:42:18.358Z,7.95
2023-05-22T17:44:45.058Z,8.19
2023-05-22T17:47:13.258Z,7.80
2023-05-22T17:49:39.865Z,8.18
2023-05-22T17:52:08.440Z,7.69
2023-05-22T17:54:35.590Z,8.20
2023-05-22T17:57:06.116Z,8.05
2023-05-22T17:59:32.741Z,8.16
2023-05-22T18:01:59.496Z,8.03
2023-05-22T18:04:26.205Z,8.24
2023-05-22T18:06:52.819Z,8.21
2023-05-22T18:09:19.530Z,8.18
2023-05-22T18:11:46.154Z,8.48
2023-05-22T18:14:12.948Z,8.34
2023-05-22T18:16:39.572Z,8.31
2023-05-22T18:19:06.231Z,8.76
2023-05-22T18:21:32.824Z,9.15
2023-05-22T18:23:59.530Z,9.41
2023-05-22T18:26:26.835Z,9.41
2023-05-22T18:28:53.431Z,9.85
2023-05-22T18:31:20.462Z,9.85
2023-05-22T18:33:47.068Z,9.69
2023-05-22T18:36:13.807Z,9.67
2023-05-22T18:38:40.436Z,9.63
2023-05-22T18:41:07.611Z,9.81
2023-05-22T18:43:34.331Z,9.14
2023-05-22T18:46:01.202Z,9.59
2023-05-22T18:48:28.294Z,9.22
2023-05-22T18:50:57.277Z,9.25
2023-05-22T18:53:25.118Z,9.05
2023-05-22T18:55:52.384Z,9.58
2023-05-22T18:58:19.040Z,9.30
2023-05-22T19:00:45.734Z,9.58
2023-05-22T19:03:12.474Z,9.46
2023-05-22T19:05:39.101Z,9.56
2023-05-22T19:08:06.428Z,9.92
2023-05-22T19:10:33.144Z,10.03
2023-05-22T19:12:59.979Z,10.12
2023-05-22T19:15:26.720Z,9.90
2023-05-22T19:17:53.348Z,10.22
2023-05-22T19:20:19.998Z,10.05
2023-05-22T19:22:46.695Z,10.33
2023-05-22T19:25:13.277Z,10.18
2023-05-22T19:27:39.924Z,10.76
2023-05-22T19:30:07.223Z,10.52
2023-05-22T19:32:33.955Z,10.55
2023-05-22T19:35:00.584Z,11.03
2023-05-22T19:37:27.157Z,10.62
2023-05-22T19:39:54.190Z,10.61
2023-05-22T19:42:20.929Z,10.51
2023-05-22T19:44:47.662Z,10.96
2023-05-22T19:47:14.303Z,10.54
2023-05-22T19:49:40.939Z,10.80
2023-05-22T19:52:07.512Z,11.12
2023-05-22T19:54:35.122Z,11.60
2023-05-22T19:57:02.967Z,11.74
2023-05-22T19:59:29.563Z,12.27
2023-05-22T20:01:56.230Z,12.17
2023-05-22T20:04:23.177Z,12.37
2023-05-22T20:06:50.872Z,12.71
2023-05-22T20:09:17.482Z,12.96
2023-05-22T20:11:44.096Z,12.96
2023-05-22T20:14:12.063Z,13.05
2023-05-22T20:16:38.740Z,12.70
2023-05-22T20:19:05.412Z,12.61
2023-05-22T20:21:32.101Z,12.77
2023-05-22T20:23:59.082Z,12.98
2023-05-22T20:26:26.055Z,12.54
2023-05-22T20:28:52.635Z,13.14
2023-05-22T20:31:19.261Z,13.24
2023-05-22T20:33:46.038Z,13.39
2023-05-22T20:36:14.851Z,13.80
2023-05-22T20:38:42.559Z,13.50
2023-05-22T20:41:09.925Z,14.14
2023-05-22T20:43:36.636Z,13.39
2023-05-22T20:46:03.255Z,13.27
2023-05-22T20:48:29.899Z,12.21
2023-05-22T20:50:56.507Z,11.47
2023-05-22T20:53:24.465Z,10.31
2023-05-22T20:55:53.264Z,9.98
2023-05-22T20:58:19.926Z,9.55
2023-05-22T21:00:49.217Z,9.36
2023-05-22T21:03:16.524Z,8.94
2023-05-22T21:05:43.167Z,8.65
2023-05-22T21:08:09.768Z,8.49
2023-05-22T21:10:36.378Z,8.65
2023-05-22T21:13:02.971Z,8.32
2023-05-22T21:15:29.528Z,7.54
2023-05-22T21:17:56.181Z,7.11
2023-05-22T21:20:22.812Z,6.82
2023-05-22T21:22:49.378Z,6.56
2023-05-22T21:25:16.045Z,6.52
2023-05-22T21:27:42.653Z,6.77
2023-05-22T21:30:12.615Z,6.91
2023-05-22T21:32:39.235Z,6.53
2023-05-22T21:35:06.244Z,6.67
2023-05-22T21:37:32.807Z,6.72
2023-05-22T21:39:59.447Z,6.83
2023-05-22T21:42:26.357Z,6.90
2023-05-22T21:44:52.959Z,7.35
2023-05-22T21:47:19.538Z,6.98
2023-05-22T21:49:46.199Z,7.51
2023-05-22T21:52:12.931Z,7.60
2023-05-22T21:54:39.701Z,7.33
2023-05-22T21:57:06.585Z,7.58
2023-05-22T21:59:33.580Z,7.47
2023-05-22T22:02:00.273Z,7.67
2023-05-22T22:04:26.895Z,7.94
2023-05-22T22:06:53.518Z,7.68
2023-05-22T22:09:20.122Z,7.67
2023-05-22T22:11:48.533Z,7.90
2023-05-22T22:14:15.096Z,7.75
2023-05-22T22:16:44.254Z,8.31
2023-05-22T22:19:11.557Z,8.42
2023-05-22T22:21:38.448Z,8.15
2023-05-22T22:24:05.123Z,8.12
2023-05-22T22:26:32.082Z,8.36
2023-05-22T22:28:58.862Z,8.55
2023-05-22T22:31:26.261Z,8.80
2023-05-22T22:33:52.921Z,8.80
2023-05-22T22:36:19.535Z,9.00
2023-05-22T22:38:46.156Z,8.64
2023-05-22T22:41:12.753Z,9.36
2023-05-22T22:43:39.319Z,9.62
2023-05-22T22:46:06.029Z,10.03
2023-05-22T22:48:33.713Z,10.51
2023-05-22T22:51:00.311Z,10.73
2023-05-22T22:53:26.940Z,10.72
2023-05-22T22:55:56.950Z,10.84
2023-05-22T22:58:23.785Z,10.92
2023-05-22T23:00:50.380Z,11.08
2023-05-22T23:03:16.987Z,11.47
2023-05-22T23:05:43.953Z,11.30
2023-05-22T23:08:11.007Z,11.79
2023-05-22T23:10:37.550Z,11.44
2023-05-22T23:13:04.351Z,12.15
2023-05-22T23:15:30.967Z,11.44
2023-05-22T23:17:57.658Z,11.78
2023-05-22T23:20:24.252Z,12.25
2023-05-22T23:22:51.299Z,12.11
2023-05-22T23:25:17.942Z,12.20
2023-05-22T23:27:44.556Z,12.60
2023-05-22T23:30:11.505Z,12.71
2023-05-22T23:32:38.146Z,12.93
2023-05-22T23:35:05.653Z,12.73
2023-05-22T23:37:32.271Z,13.33
2023-05-22T23:39:58.903Z,12.93
2023-05-22T23:42:25.727Z,13.98
2023-05-22T23:44:52.428Z,13.35
2023-05-22T23:47:19.099Z,13.10
2023-05-22T23:49:45.706Z,12.99
2023-05-22T23:52:13.078Z,12.20
2023-05-22T23:54:39.803Z,11.48
2023-05-22T23:57:06.362Z,10.84
2023-05-22T23:59:32.918Z,10.60
